createdAt,value
2023-02-13T00:01:26.646Z,7.20
2023-02-13T00:03:54.990Z,7.20
2023-02-13T00:06:23.310Z,7.20
2023-02-13T00:08:51.788Z,7.30
2023-02-13T00:11:20.620Z,7.30
2023-02-13T00:13:48.734Z,7.20
2023-02-13T00:16:18.169Z,7.20
2023-02-13T00:18:46.216Z,7.20
2023-02-13T00:21:15.779Z,7.20
2023-02-13T00:23:43.873Z,7.20
2023-02-13T00:26:15.591Z,7.20
2023-02-13T00:28:44.469Z,7.20
2023-02-13T00:31:15.488Z,7.20
2023-02-13T00:33:45.320Z,7.10
2023-02-13T00:36:16.236Z,7.20
2023-02-13T00:38:44.920Z,7.20
2023-02-13T00:41:13.918Z,7.20
2023-02-13T00:43:42.230Z,7.20
2023-02-13T00:46:10.435Z,7.20
2023-02-13T00:48:39.622Z,7.10
2023-02-13T00:51:10.440Z,7.10
2023-02-13T00:53:39.533Z,7.20
2023-02-13T00:56:08.710Z,7.10
2023-02-13T00:58:36.894Z,7.00
2023-02-13T01:01:05.461Z,7.10
2023-02-13T01:03:33.788Z,7.10
2023-02-13T01:06:01.913Z,7.10
2023-02-13T01:08:31.559Z,7.10
2023-02-13T01:11:00.151Z,7.10
2023-02-13T01:13:28.630Z,7.10
2023-02-13T01:15:56.910Z,7.10
2023-02-13T01:18:25.364Z,7.00
2023-02-13T01:21:02.534Z,7.00
2023-02-13T01:23:36.860Z,7.00
2023-02-13T01:26:06.430Z,7.00
2023-02-13T01:28:35.197Z,7.00
2023-02-13T01:31:03.889Z,7.00
2023-02-13T01:33:32.074Z,7.00
2023-02-13T01:36:00.493Z,7.10
2023-02-13T01:38:28.962Z,7.10
2023-02-13T01:40:58.751Z,7.10
2023-02-13T01:43:46.575Z,7.10
2023-02-13T01:46:20.220Z,7.10
2023-02-13T01:48:52.147Z,7.20
2023-02-13T01:51:26.674Z,7.20
2023-02-13T01:54:02.713Z,7.10
2023-02-13T01:56:38.298Z,7.20
2023-02-13T01:59:13.926Z,7.20
2023-02-13T02:01:42.558Z,7.20
2023-02-13T02:04:17.721Z,7.20
2023-02-13T02:06:52.919Z,7.10
2023-02-13T02:09:26.831Z,7.10
2023-02-13T02:12:02.668Z,7.10
2023-02-13T02:14:31.131Z,7.20
2023-02-13T02:16:59.818Z,7.10
2023-02-13T02:19:39.465Z,7.10
2023-02-13T02:22:59.957Z,7.10
2023-02-13T02:26:21.197Z,7.10
2023-02-13T02:29:36.142Z,7.00
2023-02-13T02:32:37.605Z,7.00
2023-02-13T02:35:20.660Z,7.00
2023-02-13T02:38:12.631Z,7.00
2023-02-13T02:41:01.529Z,7.00
2023-02-13T02:43:56.292Z,7.00
2023-02-13T02:46:33.863Z,7.00
2023-02-13T02:49:30.923Z,7.00
2023-02-13T02:52:09.724Z,7.00
2023-02-13T02:55:08.938Z,7.00
2023-02-13T02:58:03.978Z,7.00
2023-02-13T03:00:55.797Z,7.00
2023-02-13T03:03:44.276Z,7.00
2023-02-13T03:06:21.705Z,7.00
2023-02-13T03:09:16.187Z,6.90
2023-02-13T03:12:08.025Z,6.90
2023-02-13T03:14:36.947Z,7.00
2023-02-13T03:17:24.828Z,7.00
2023-02-13T03:20:25.867Z,6.90
2023-02-13T03:23:14.851Z,6.90
2023-02-13T03:26:06.838Z,7.00
2023-02-13T03:29:01.505Z,7.00
2023-02-13T03:31:40.107Z,6.90
2023-02-13T03:34:14.444Z,7.00
2023-02-13T03:37:09.633Z,7.00
2023-02-13T03:39:54.759Z,7.00
2023-02-13T03:42:33.893Z,7.00
2023-02-13T03:45:30.890Z,7.00
2023-02-13T03:48:09.578Z,7.00
2023-02-13T03:50:43.231Z,7.00
2023-02-13T03:53:15.972Z,7.00
2023-02-13T03:56:07.172Z,7.00
2023-02-13T03:58:59.606Z,7.00
2023-02-13T04:01:33.354Z,7.10
2023-02-13T04:04:10.539Z,7.10
2023-02-13T04:06:48.647Z,7.10
2023-02-13T04:09:17.648Z,7.10
2023-02-13T04:11:57.278Z,7.10
2023-02-13T04:14:32.327Z,7.10
2023-02-13T04:17:07.057Z,7.10
2023-02-13T04:19:36.156Z,7.10
2023-02-13T04:22:04.408Z,7.00
2023-02-13T04:24:32.731Z,7.10
2023-02-13T04:27:02.878Z,7.00
2023-02-13T04:29:30.955Z,7.00
2023-02-13T04:31:59.054Z,7.10
2023-02-13T04:34:27.199Z,7.10
2023-02-13T04:36:55.234Z,7.10
2023-02-13T04:39:23.325Z,7.00
2023-02-13T04:41:51.716Z,7.10
2023-02-13T04:44:21.465Z,7.10
2023-02-13T04:46:49.544Z,7.00
2023-02-13T04:49:17.618Z,7.10
2023-02-13T04:51:45.664Z,7.00
2023-02-13T04:54:13.811Z,7.10
2023-02-13T04:56:41.832Z,7.00
2023-02-13T04:59:09.916Z,7.00
2023-02-13T05:01:39.410Z,7.00
2023-02-13T05:04:07.554Z,7.00
2023-02-13T05:06:36.010Z,7.00
2023-02-13T05:09:04.129Z,7.00
2023-02-13T05:11:32.210Z,7.00
2023-02-13T05:14:00.315Z,7.00
2023-02-13T05:16:28.400Z,7.00
2023-02-13T05:18:57.797Z,7.00
2023-02-13T05:21:43.364Z,7.10
2023-02-13T05:24:11.484Z,7.00
2023-02-13T05:26:39.616Z,7.00
2023-02-13T05:29:24.306Z,7.00
2023-02-13T05:31:55.430Z,7.00
2023-02-13T05:34:27.976Z,7.00
2023-02-13T05:36:56.764Z,7.00
2023-02-13T05:39:24.797Z,7.00
2023-02-13T05:41:52.870Z,7.00
2023-02-13T05:44:21.064Z,7.00
2023-02-13T05:46:49.363Z,7.00
2023-02-13T05:49:17.591Z,7.00
2023-02-13T05:51:47.400Z,7.00
2023-02-13T05:54:16.056Z,7.00
2023-02-13T05:56:44.113Z,7.00
2023-02-13T05:59:12.221Z,7.00
2023-02-13T06:01:40.287Z,7.00
2023-02-13T06:04:08.524Z,7.00
2023-02-13T06:06:36.663Z,7.00
2023-02-13T06:09:06.138Z,7.00
2023-02-13T06:11:34.347Z,6.80
2023-02-13T06:14:02.396Z,7.00
2023-02-13T06:16:31.026Z,7.00
2023-02-13T06:18:59.245Z,7.00
2023-02-13T06:21:27.414Z,7.00
2023-02-13T06:23:55.510Z,7.00
2023-02-13T06:26:25.201Z,7.00
2023-02-13T06:28:53.249Z,7.00
2023-02-13T06:31:21.430Z,7.00
2023-02-13T06:33:49.527Z,7.00
2023-02-13T06:36:17.655Z,7.00
2023-02-13T06:38:45.703Z,7.00
2023-02-13T06:41:13.790Z,7.00
2023-02-13T06:43:43.222Z,6.90
2023-02-13T06:46:11.499Z,7.00
2023-02-13T06:48:39.655Z,7.00
2023-02-13T06:51:07.748Z,6.90
2023-02-13T06:53:35.767Z,7.00
2023-02-13T06:56:06.932Z,7.00
2023-02-13T06:58:35.232Z,7.00
2023-02-13T07:01:04.827Z,7.00
2023-02-13T07:03:33.341Z,6.90
2023-02-13T07:06:01.372Z,6.90
2023-02-13T07:08:29.490Z,6.90
2023-02-13T07:10:57.752Z,7.00
2023-02-13T07:13:26.087Z,7.00
2023-02-13T07:15:54.159Z,7.00
2023-02-13T07:18:23.596Z,6.90
2023-02-13T07:20:51.640Z,6.90
2023-02-13T07:23:19.740Z,7.00
2023-02-13T07:25:47.793Z,7.00
2023-02-13T07:28:15.918Z,7.00
2023-02-13T07:30:44.141Z,7.00
2023-02-13T07:33:13.641Z,7.00
2023-02-13T07:35:48.183Z,7.00
2023-02-13T07:38:16.547Z,7.00
2023-02-13T07:40:45.015Z,7.00
2023-02-13T07:43:14.597Z,7.00
2023-02-13T07:45:42.688Z,7.00
2023-02-13T07:48:10.742Z,7.00
2023-02-13T07:50:38.823Z,7.00
2023-02-13T07:53:08.424Z,7.00
2023-02-13T07:55:39.309Z,7.00
2023-02-13T07:58:07.440Z,7.00
2023-02-13T08:00:35.519Z,7.00
2023-02-13T08:03:03.938Z,7.00
2023-02-13T08:05:34.721Z,6.90
2023-02-13T08:08:02.821Z,7.00
2023-02-13T08:10:49.847Z,7.00
2023-02-13T08:13:19.183Z,7.00
2023-02-13T08:15:47.956Z,7.00
2023-02-13T08:18:18.090Z,7.00
2023-02-13T08:20:46.952Z,7.10
2023-02-13T08:23:15.094Z,7.00
2023-02-13T08:25:44.539Z,7.10
2023-02-13T08:28:12.674Z,7.10
2023-02-13T08:30:40.841Z,7.10
2023-02-13T08:33:08.962Z,7.10
2023-02-13T08:35:37.060Z,7.10
2023-02-13T08:38:05.961Z,7.10
2023-02-13T08:40:34.606Z,7.10
2023-02-13T08:43:06.898Z,7.10
2023-02-13T08:45:35.364Z,7.10
2023-02-13T08:48:04.836Z,7.10
2023-02-13T08:50:35.081Z,7.20
2023-02-13T08:53:04.215Z,7.20
2023-02-13T08:55:32.413Z,7.10
2023-02-13T08:58:03.446Z,7.20
2023-02-13T09:00:32.099Z,7.20
2023-02-13T09:03:03.447Z,7.20
2023-02-13T09:05:32.637Z,7.20
2023-02-13T09:08:02.686Z,7.20
2023-02-13T09:10:30.970Z,7.20
2023-02-13T09:12:59.107Z,7.20
2023-02-13T09:15:28.686Z,7.30
2023-02-13T09:17:56.885Z,7.30
2023-02-13T09:20:25.161Z,7.30
2023-02-13T09:22:53.429Z,7.30
2023-02-13T09:25:21.665Z,7.30
2023-02-13T09:27:50.160Z,7.40
2023-02-13T09:30:23.440Z,7.40
2023-02-13T09:32:54.402Z,7.40
2023-02-13T09:35:24.230Z,7.40
2023-02-13T09:37:52.284Z,7.40
2023-02-13T09:40:28.957Z,7.50
2023-02-13T09:43:09.373Z,7.40
2023-02-13T09:45:39.335Z,7.50
2023-02-13T09:48:20.166Z,7.50
2023-02-13T09:50:48.212Z,7.50
2023-02-13T09:53:23.335Z,7.50
2023-02-13T09:56:06.712Z,7.50
2023-02-13T09:58:45.567Z,7.60
2023-02-13T10:01:30.424Z,7.60
2023-02-13T10:04:30.725Z,7.70
2023-02-13T10:07:16.810Z,7.70
2023-02-13T10:10:00.402Z,7.70
2023-02-13T10:12:57.131Z,7.70
2023-02-13T10:15:35.864Z,7.70
2023-02-13T10:18:11.718Z,7.70
2023-02-13T10:20:48.162Z,7.70
2023-02-13T10:23:28.004Z,7.70
2023-02-13T10:26:02.405Z,7.80
2023-02-13T10:28:38.670Z,7.80
2023-02-13T10:31:11.232Z,7.80
2023-02-13T10:33:50.315Z,7.90
2023-02-13T10:36:25.224Z,7.80
2023-02-13T10:39:01.316Z,7.90
2023-02-13T10:41:45.338Z,7.90
2023-02-13T10:44:43.197Z,7.90
2023-02-13T10:47:31.037Z,7.90
2023-02-13T10:50:16.441Z,7.90
2023-02-13T10:53:05.288Z,8.00
2023-02-13T10:56:09.467Z,8.00
2023-02-13T10:58:55.598Z,8.00
2023-02-13T11:01:33.627Z,8.00
2023-02-13T11:04:12.114Z,8.00
2023-02-13T11:06:51.980Z,8.00
2023-02-13T11:09:21.856Z,8.00
2023-02-13T11:11:50.337Z,8.00
2023-02-13T11:14:21.066Z,8.10
2023-02-13T11:16:55.636Z,8.10
2023-02-13T11:19:32.332Z,8.10
2023-02-13T11:22:06.717Z,8.10
2023-02-13T11:24:37.872Z,8.10
2023-02-13T11:27:12.820Z,8.20
2023-02-13T11:29:55.995Z,8.20
2023-02-13T11:32:28.682Z,8.20
2023-02-13T11:34:57.586Z,8.20
2023-02-13T11:37:29.470Z,8.20
2023-02-13T11:40:21.326Z,8.20
2023-02-13T11:42:53.034Z,8.30
2023-02-13T11:45:25.726Z,8.30
2023-02-13T11:47:56.668Z,8.30
2023-02-13T11:50:30.272Z,8.20
2023-02-13T11:53:03.108Z,8.30
2023-02-13T11:55:38.124Z,8.30
2023-02-13T11:58:27.540Z,8.30
2023-02-13T12:01:12.183Z,8.40
2023-02-13T12:03:42.883Z,8.40
2023-02-13T12:06:15.770Z,8.40
2023-02-13T12:08:48.093Z,8.40
2023-02-13T12:11:30.106Z,8.40
2023-02-13T12:13:59.304Z,8.40
2023-02-13T12:16:36.704Z,8.40
2023-02-13T12:19:12.511Z,8.30
2023-02-13T12:22:02.412Z,8.30
2023-02-13T12:24:58.776Z,8.40
2023-02-13T12:27:42.738Z,8.40
2023-02-13T12:30:41.299Z,8.50
2023-02-13T12:33:33.794Z,8.40
2023-02-13T12:36:11.528Z,8.40
2023-02-13T12:38:58.780Z,8.50
2023-02-13T12:41:39.848Z,8.50
2023-02-13T12:44:36.381Z,8.50
2023-02-13T12:47:17.629Z,8.50
2023-02-13T12:50:24.846Z,8.50
2023-02-13T12:53:36.305Z,8.50
2023-02-13T12:56:26.933Z,8.60
2023-02-13T12:59:06.196Z,8.60
2023-02-13T13:02:16.160Z,8.70
2023-02-13T13:05:02.188Z,8.70
2023-02-13T13:07:53.329Z,8.60
2023-02-13T13:10:48.925Z,8.70
2023-02-13T13:13:35.841Z,8.70
2023-02-13T13:16:17.867Z,8.70
2023-02-13T13:19:07.188Z,8.70
2023-02-13T13:21:49.975Z,8.70
2023-02-13T13:24:43.401Z,8.70
2023-02-13T13:27:21.168Z,8.80
2023-02-13T13:29:56.990Z,8.70
2023-02-13T13:32:27.530Z,8.80
2023-02-13T13:34:59.058Z,8.70
2023-02-13T13:37:36.769Z,8.70
2023-02-13T13:40:31.301Z,8.70
2023-02-13T13:43:07.895Z,8.70
2023-02-13T13:45:46.285Z,8.70
2023-02-13T13:48:44.724Z,8.70
2023-02-13T13:51:19.763Z,8.70
2023-02-13T13:54:36.696Z,8.60
2023-02-13T13:57:12.847Z,8.70
2023-02-13T14:00:28.525Z,8.70
2023-02-13T14:03:35.575Z,8.70
2023-02-13T14:06:12.692Z,8.70
2023-02-13T14:09:41.157Z,8.70
2023-02-13T14:12:38.888Z,8.70
2023-02-13T14:15:45.871Z,8.70
2023-02-13T14:18:23.863Z,8.70
2023-02-13T14:20:56.751Z,8.70
2023-02-13T14:23:53.053Z,8.70
2023-02-13T14:26:35.504Z,8.70
2023-02-13T14:29:33.297Z,8.80
2023-02-13T14:32:21.058Z,8.80
2023-02-13T14:35:01.174Z,8.70
2023-02-13T14:37:40.065Z,8.60
2023-02-13T14:40:31.614Z,8.70
2023-02-13T14:43:22.020Z,8.70
2023-02-13T14:45:56.309Z,8.60
2023-02-13T14:48:36.849Z,8.70
2023-02-13T14:51:08.868Z,8.70
2023-02-13T14:53:50.431Z,8.70
2023-02-13T14:56:23.912Z,8.70
2023-02-13T14:59:00.251Z,8.70
2023-02-13T15:01:34.535Z,8.70
2023-02-13T15:04:13.773Z,8.80
2023-02-13T15:06:46.779Z,8.70
2023-02-13T15:09:34.119Z,8.70
2023-02-13T15:12:02.555Z,8.70
2023-02-13T15:14:36.361Z,8.70
2023-02-13T15:17:15.016Z,8.70
2023-02-13T15:19:48.510Z,8.70
2023-02-13T15:22:33.941Z,8.60
2023-02-13T15:25:02.472Z,8.70
2023-02-13T15:27:35.699Z,8.60
2023-02-13T15:30:19.299Z,8.60
2023-02-13T15:32:55.690Z,8.60
2023-02-13T15:35:27.549Z,8.60
2023-02-13T15:37:56.968Z,8.60
2023-02-13T15:40:29.217Z,8.50
2023-02-13T15:42:59.220Z,8.50
2023-02-13T15:45:30.657Z,8.50
2023-02-13T15:47:59.294Z,8.50
2023-02-13T15:50:34.201Z,8.50
2023-02-13T15:53:10.941Z,8.50
2023-02-13T15:55:39.064Z,8.40
2023-02-13T15:58:11.688Z,8.40
2023-02-13T16:00:44.185Z,8.40
2023-02-13T16:03:18.787Z,8.40
2023-02-13T16:05:48.730Z,8.30
2023-02-13T16:08:35.885Z,8.40
2023-02-13T16:11:31.252Z,8.40
2023-02-13T16:14:16.414Z,8.40
2023-02-13T16:16:54.203Z,8.30
2023-02-13T16:19:27.423Z,8.30
2023-02-13T16:21:58.449Z,8.30
2023-02-13T16:24:29.291Z,8.20
2023-02-13T16:26:57.848Z,8.30
2023-02-13T16:29:28.425Z,8.30
2023-02-13T16:32:15.445Z,8.30
2023-02-13T16:34:43.511Z,8.30
2023-02-13T16:37:31.587Z,8.20
2023-02-13T16:40:40.235Z,8.20
2023-02-13T16:43:38.025Z,8.20
2023-02-13T16:46:34.968Z,8.20
2023-02-13T16:49:14.201Z,8.20
2023-02-13T16:51:45.916Z,8.10
2023-02-13T16:54:35.544Z,8.10
2023-02-13T16:57:19.633Z,8.10
2023-02-13T16:59:59.952Z,8.00
2023-02-13T17:02:29.449Z,8.10
2023-02-13T17:05:14.480Z,8.00
2023-02-13T17:07:46.761Z,8.00
2023-02-13T17:10:22.553Z,8.00
2023-02-13T17:12:52.922Z,8.00
2023-02-13T17:15:24.201Z,8.00
2023-02-13T17:17:53.597Z,7.90
2023-02-13T17:20:28.413Z,7.90
2023-02-13T17:22:58.686Z,7.90
2023-02-13T17:25:29.716Z,7.90
2023-02-13T17:28:02.847Z,7.90
2023-02-13T17:30:34.395Z,7.90
2023-02-13T17:33:07.689Z,7.90
2023-02-13T17:35:36.158Z,7.90
2023-02-13T17:38:06.126Z,7.90
2023-02-13T17:40:34.225Z,7.80
2023-02-13T17:43:03.877Z,7.80
2023-02-13T17:45:34.405Z,7.70
2023-02-13T17:48:02.542Z,7.70
2023-02-13T17:50:32.726Z,7.70
2023-02-13T17:53:04.919Z,7.70
2023-02-13T17:55:35.200Z,7.70
2023-02-13T17:58:04.779Z,7.70
2023-02-13T18:00:35.447Z,7.60
2023-02-13T18:03:04.157Z,7.60
2023-02-13T18:05:33.019Z,7.60
2023-02-13T18:08:02.071Z,7.60
2023-02-13T18:10:33.557Z,7.50
2023-02-13T18:13:04.879Z,7.50
2023-02-13T18:15:35.835Z,7.50
2023-02-13T18:18:04.156Z,7.50
2023-02-13T18:20:32.318Z,7.40
2023-02-13T18:23:00.406Z,7.40
2023-02-13T18:25:29.097Z,7.40
2023-02-13T18:27:57.203Z,7.40
2023-02-13T18:30:25.771Z,7.40
2023-02-13T18:32:58.866Z,7.40
2023-02-13T18:35:27.302Z,7.30
2023-02-13T18:37:55.378Z,7.20
2023-02-13T18:40:23.465Z,7.20
2023-02-13T18:42:52.320Z,7.20
2023-02-13T18:45:20.674Z,7.10
2023-02-13T18:47:48.699Z,7.10
2023-02-13T18:50:19.303Z,7.10
2023-02-13T18:52:47.671Z,7.00
2023-02-13T18:55:15.838Z,7.10
2023-02-13T18:57:45.342Z,7.00
2023-02-13T19:00:15.938Z,7.00
2023-02-13T19:02:44.023Z,6.90
2023-02-13T19:05:15.201Z,6.90
2023-02-13T19:07:44.919Z,6.90
2023-02-13T19:10:14.786Z,6.80
2023-02-13T19:12:43.381Z,6.80
2023-02-13T19:15:11.732Z,6.80
2023-02-13T19:17:40.038Z,6.70
2023-02-13T19:20:09.890Z,6.70
2023-02-13T19:22:37.994Z,6.70
2023-02-13T19:25:07.913Z,6.60
2023-02-13T19:27:38.446Z,6.60
2023-02-13T19:30:09.489Z,6.50
2023-02-13T19:32:37.689Z,6.50
2023-02-13T19:35:06.899Z,6.40
2023-02-13T19:37:43.350Z,6.40
2023-02-13T19:40:15.179Z,6.20
2023-02-13T19:42:43.290Z,6.10
2023-02-13T19:45:11.717Z,6.10
2023-02-13T19:47:39.809Z,6.00
2023-02-13T19:50:10.926Z,5.90
2023-02-13T19:52:39.051Z,5.90
2023-02-13T19:55:07.974Z,5.90
2023-02-13T19:57:39.183Z,5.80
2023-02-13T20:00:09.645Z,5.70
2023-02-13T20:02:40.639Z,5.60
2023-02-13T20:05:09.542Z,5.60
2023-02-13T20:07:37.602Z,5.50
2023-02-13T20:10:08.024Z,5.40
2023-02-13T20:12:40.626Z,5.40
2023-02-13T20:15:10.393Z,5.30
2023-02-13T20:17:39.273Z,5.20
2023-02-13T20:20:09.149Z,5.20
2023-02-13T20:22:37.205Z,5.20
2023-02-13T20:25:06.406Z,5.10
2023-02-13T20:27:41.975Z,5.00
2023-02-13T20:30:15.965Z,5.00
2023-02-13T20:32:44.208Z,4.90
2023-02-13T20:35:12.323Z,4.80
2023-02-13T20:37:40.385Z,4.80
2023-02-13T20:40:10.515Z,4.80
2023-02-13T20:42:40.196Z,5.00
2023-02-13T20:45:09.559Z,4.90
2023-02-13T20:47:37.588Z,4.80
2023-02-13T20:50:06.352Z,4.70
2023-02-13T20:52:35.667Z,4.60
2023-02-13T20:55:03.909Z,4.60
2023-02-13T20:57:34.896Z,4.50
2023-02-13T21:00:06.506Z,4.50
2023-02-13T21:02:34.686Z,4.50
2023-02-13T21:05:02.953Z,4.50
2023-02-13T21:07:31.899Z,4.50
2023-02-13T21:09:59.991Z,4.30
2023-02-13T21:12:28.063Z,4.30
2023-02-13T21:14:56.103Z,4.50
2023-02-13T21:17:25.532Z,4.30
2023-02-13T21:19:53.592Z,4.20
2023-02-13T21:22:21.668Z,4.20
2023-02-13T21:24:51.765Z,4.10
2023-02-13T21:27:19.983Z,4.00
2023-02-13T21:29:48.063Z,4.10
2023-02-13T21:32:16.409Z,4.20
2023-02-13T21:34:45.919Z,4.00
2023-02-13T21:37:13.994Z,4.10
2023-02-13T21:39:42.024Z,4.10
2023-02-13T21:42:10.416Z,4.00
2023-02-13T21:44:38.460Z,3.90
2023-02-13T21:47:07.260Z,3.90
2023-02-13T21:49:35.837Z,3.80
2023-02-13T21:52:05.581Z,3.80
2023-02-13T21:54:33.679Z,3.80
2023-02-13T21:57:01.821Z,3.70
2023-02-13T21:59:30.006Z,3.80
2023-02-13T22:01:58.800Z,3.60
2023-02-13T22:04:26.972Z,3.70
2023-02-13T22:06:55.620Z,3.70
2023-02-13T22:09:26.852Z,3.80
2023-02-13T22:11:55.377Z,3.60
2023-02-13T22:14:23.448Z,3.70
2023-02-13T22:16:53.238Z,3.60
2023-02-13T22:19:22.992Z,3.70
2023-02-13T22:21:51.216Z,3.70
2023-02-13T22:24:19.640Z,3.60
2023-02-13T22:26:49.110Z,3.50
2023-02-13T22:29:18.488Z,3.30
2023-02-13T22:31:46.812Z,3.20
2023-02-13T22:34:15.777Z,3.20
2023-02-13T22:36:43.895Z,3.30
2023-02-13T22:39:13.222Z,3.30
2023-02-13T22:41:42.234Z,3.20
2023-02-13T22:44:11.953Z,3.10
2023-02-13T22:46:40.117Z,3.40
2023-02-13T22:49:08.308Z,3.20
2023-02-13T22:51:37.650Z,3.10
2023-02-13T22:54:06.835Z,3.00
2023-02-13T22:56:35.207Z,2.90
2023-02-13T22:59:04.019Z,3.00
2023-02-13T23:01:33.460Z,2.90
2023-02-13T23:04:01.570Z,2.80
2023-02-13T23:06:32.577Z,2.80
2023-02-13T23:09:00.608Z,3.00
2023-02-13T23:11:49.589Z,2.80
2023-02-13T23:14:17.649Z,2.70
2023-02-13T23:17:04.930Z,2.70
2023-02-13T23:19:33.106Z,2.60
2023-02-13T23:22:02.267Z,2.60
2023-02-13T23:24:31.485Z,2.50
2023-02-13T23:27:00.008Z,2.50
2023-02-13T23:29:28.411Z,2.60
2023-02-13T23:31:58.027Z,2.80
2023-02-13T23:34:26.358Z,2.70
2023-02-13T23:36:54.382Z,2.50
2023-02-13T23:39:24.166Z,2.60
2023-02-13T23:41:52.260Z,2.60
2023-02-13T23:44:20.708Z,2.50
2023-02-13T23:46:48.766Z,2.40
2023-02-13T23:49:18.443Z,2.40
2023-02-13T23:51:46.495Z,2.50
2023-02-13T23:54:16.628Z,2.40
2023-02-13T23:56:45.348Z,2.30
2023-02-13T23:59:13.902Z,2.20
